Terminal Aerodrome Forecast
Issued by NWS Burlington, VT

Home | Current Version | Previous Version | Text Only | Print | Product List | Glossary On
Versions: 1 2 3 4 5 6 7 8 9 10 11 12 13 14 15 16 17 18
000
FTUS41 KBTV 201734
TAFBTV
TAF
KBTV 201734Z 2018/2118 18006KT P6SM OVC020
      TEMPO 2108/2112 4SM BR BKN010
     FM211500 18007KT P6SM BKN025 OVC040=

USA.gov is the U.S. government's official web portal to all federal, state and local government web resources and services.